Sarahsville, Ohio
Current Conditions -  °F | °C
As of 2:53 AM on Saturday 01 Nov 2014 (Local Time) from KZZV Reporting Station
Light Rain Light Rain  
Wind Chill: 37°   Ceiling: 800
Heat Index: 41°   Visibility: 5mi
Dew Point: 39°   Wind: 6mph
Humidity: 93%   Direction: 340°NNW
Pressure: 29.91"   Gusts: NA
Location:  39.81°N, 81.47°W
Report Text: KZZV 010653Z AUTO 34005KT 5SM -RA BR OVC008 05/04 A2991 RMK AO2 RAB51 CIG 006V010 SLP130 P0000 T00500039
Loading
Personal Weather Stations






























Interactive Weather Map
Tropical Storm Tracking
New forecast layout! Learn more

10-Day Weather Forecast

Advertisements
Track Severe Weather on mobile